Time;durP1;ratioP1;P1;durP2;ratioP2;P2;SDS_P1;SDS_P2;PMS_P1;PMS_P2;Temp;Humidity;BMP_temperature;BMP_pressure;BME280_temperature;BME280_humidity;BME280_pressure;Samples;Min_cycle;Max_cycle;Signal;HPM_P1;HPM_P2
2024/01/14 00:00:18;;;;;;;7.28;1.30;;;;;;;4.05;100.00;101256.97;7398376;19;19918;-78
2024/01/14 00:02:47;;;;;;;10.10;0.90;;;;;;;4.07;100.00;101247.03;7396971;19;19915;-77
2024/01/14 00:05:16;;;;;;;8.43;1.38;;;;;;;4.11;100.00;101254.66;7396227;19;19978;-79
2024/01/14 00:07:45;;;;;;;5.55;0.95;;;;;;;4.18;100.00;101254.16;7396102;19;19918;-79
2024/01/14 00:10:14;;;;;;;4.30;1.08;;;;;;;4.19;100.00;101258.50;7397181;19;19926;-78
2024/01/14 00:12:43;;;;;;;12.35;2.10;;;;;;;4.20;100.00;101262.84;7396329;19;19974;-78
2024/01/14 00:15:12;;;;;;;6.28;1.35;;;;;;;4.18;100.00;101263.00;7396830;19;19914;-77
2024/01/14 00:17:41;;;;;;;5.47;0.98;;;;;;;4.15;100.00;101263.22;7396280;19;20481;-77
2024/01/14 00:20:30;;;;;;;11.15;1.42;;;;;;;4.13;100.00;101265.19;7393304;19;19926;-77
2024/01/14 00:22:58;;;;;;;13.35;1.20;;;;;;;4.03;100.00;101266.91;7395316;19;19915;-78
2024/01/14 00:25:27;;;;;;;6.53;0.98;;;;;;;3.95;100.00;101277.34;7396715;19;19922;-77
2024/01/14 00:28:07;;;;;;;11.00;1.33;;;;;;;3.92;100.00;101254.47;7396628;19;20266;-78
2024/01/14 00:30:58;;;;;;;5.03;0.88;;;;;;;3.86;100.00;101256.78;7393672;19;19915;-78
2024/01/14 00:33:27;;;;;;;4.68;0.60;;;;;;;3.84;100.00;101246.22;7396710;19;19915;-78
2024/01/14 00:35:56;;;;;;;5.28;1.42;;;;;;;3.87;100.00;101242.47;7391241;19;19941;-77
2024/01/14 00:38:38;;;;;;;5.55;0.80;;;;;;;3.86;100.00;101246.13;7394404;19;20324;-77
2024/01/14 00:41:07;;;;;;;6.32;0.50;;;;;;;3.86;100.00;101248.78;7396196;19;19925;-77
2024/01/14 00:43:36;;;;;;;5.38;0.40;;;;;;;3.79;100.00;101251.09;7395323;19;19927;-78
2024/01/14 00:46:12;;;;;;;3.70;0.60;;;;;;;3.80;100.00;101254.59;7395600;19;19946;-77
2024/01/14 00:48:41;;;;;;;2.83;0.50;;;;;;;3.80;100.00;101260.78;7395497;19;19922;-78
2024/01/14 00:51:10;;;;;;;4.05;0.40;;;;;;;3.82;100.00;101239.34;7395792;19;19936;-77
2024/01/14 00:53:39;;;;;;;5.38;0.65;;;;;;;3.80;100.00;101230.59;7395026;19;19975;-77
2024/01/14 00:56:07;;;;;;;4.90;0.43;;;;;;;3.78;100.00;101249.41;7395780;19;19926;-78
2024/01/14 00:58:36;;;;;;;10.00;0.77;;;;;;;3.79;100.00;101239.59;7396159;19;19941;-77
2024/01/14 01:01:08;;;;;;;3.85;0.82;;;;;;;3.78;100.00;101235.22;7397927;19;19915;-77
2024/01/14 01:03:41;;;;;;;4.03;0.55;;;;;;;3.78;100.00;101225.44;7395107;19;19926;-77
2024/01/14 01:06:12;;;;;;;3.00;0.40;;;;;;;3.81;100.00;101221.66;7393942;19;19918;-77
2024/01/14 01:08:40;;;;;;;9.45;1.98;;;;;;;3.79;100.00;101219.13;7394787;19;19915;-77
2024/01/14 01:11:09;;;;;;;6.82;0.40;;;;;;;3.79;100.00;101211.13;7396238;19;20458;-77
2024/01/14 01:13:41;;;;;;;5.25;0.93;;;;;;;3.80;100.00;101214.63;7401912;19;19925;-77
2024/01/14 01:16:10;;;;;;;6.57;0.98;;;;;;;3.81;100.00;101206.50;7399880;19;20022;-77
2024/01/14 01:18:46;;;;;;;3.53;0.50;;;;;;;3.79;100.00;101196.97;7400965;19;19915;-79
2024/01/14 01:21:24;;;;;;;5.60;0.88;;;;;;;3.80;100.00;101198.63;7399853;19;19932;-77
2024/01/14 01:23:52;;;;;;;9.02;1.38;;;;;;;3.80;100.00;101195.97;7401268;19;19986;-77
2024/01/14 01:26:21;;;;;;;5.88;0.75;;;;;;;3.81;100.00;101195.00;7400252;19;20255;-77
2024/01/14 01:29:09;;;;;;;2.70;1.02;;;;;;;3.84;100.00;101194.78;7398142;19;19921;-77
2024/01/14 01:31:38;;;;;;;5.28;0.70;;;;;;;3.82;100.00;101188.72;7400299;19;19914;-77
2024/01/14 01:34:09;;;;;;;7.68;1.10;;;;;;;3.79;100.00;101196.97;7399455;19;19942;-77
2024/01/14 01:36:38;;;;;;;5.10;1.15;;;;;;;3.78;100.00;101187.28;7399664;19;19927;-77
2024/01/14 01:39:07;;;;;;;5.95;0.95;;;;;;;3.77;100.00;101188.25;7399350;19;19946;-77
2024/01/14 01:41:37;;;;;;;3.95;0.75;;;;;;;3.74;100.00;101183.16;7399790;19;20279;-77
2024/01/14 01:44:06;;;;;;;9.93;0.80;;;;;;;3.75;100.00;101182.19;7399398;19;19971;-77
2024/01/14 01:46:35;;;;;;;5.30;0.95;;;;;;;3.74;100.00;101185.84;7399264;19;19926;-77
2024/01/14 01:49:04;;;;;;;5.65;0.90;;;;;;;3.74;100.00;101177.84;7398057;19;19919;-78
2024/01/14 01:51:49;;;;;;;5.10;0.90;;;;;;;3.72;100.00;101175.28;7398631;19;19931;-78
2024/01/14 01:54:20;;;;;;;7.40;1.15;;;;;;;3.69;100.00;101180.88;7400421;19;19922;-77
2024/01/14 01:57:10;;;;;;;5.88;0.75;;;;;;;3.67;100.00;101162.34;7397045;19;19922;-78
2024/01/14 01:59:39;;;;;;;5.40;1.00;;;;;;;3.69;100.00;101180.03;7399864;19;19922;-78
2024/01/14 02:02:08;;;;;;;3.40;0.60;;;;;;;3.70;100.00;101169.25;7400199;19;19922;-78
2024/01/14 02:04:40;;;;;;;3.65;0.93;;;;;;;3.72;100.00;101166.44;7399734;19;19982;-77
2024/01/14 02:07:12;;;;;;;8.10;0.95;;;;;;;3.73;100.00;101168.16;7400142;19;19931;-77
2024/01/14 02:09:41;;;;;;;4.90;1.05;;;;;;;3.72;100.00;101169.09;7398709;19;19950;-77
2024/01/14 02:12:11;;;;;;;6.40;0.70;;;;;;;3.73;100.00;101160.16;7400597;19;19970;-77
2024/01/14 02:14:49;;;;;;;6.75;1.58;;;;;;;3.72;100.00;101159.31;7399524;19;19922;-78
2024/01/14 02:17:21;;;;;;;5.40;1.60;;;;;;;3.73;100.00;101168.16;7400006;19;19918;-77
2024/01/14 02:19:50;;;;;;;7.68;0.90;;;;;;;3.70;100.00;101160.41;7398115;19;19922;-77
2024/01/14 02:22:26;;;;;;;8.68;1.27;;;;;;;3.69;100.00;101148.06;7396459;19;19921;-77
2024/01/14 02:25:17;;;;;;;7.18;0.70;;;;;;;3.67;100.00;101151.69;7396278;19;19922;-77
2024/01/14 02:28:06;;;;;;;7.57;0.90;;;;;;;3.70;100.00;101149.75;7399070;19;19930;-77
2024/01/14 02:30:39;;;;;;;6.55;1.40;;;;;;;3.69;100.00;101169.38;7398658;19;19927;-78
2024/01/14 02:33:07;;;;;;;6.47;0.90;;;;;;;3.72;100.00;101175.28;7399967;19;19922;-78
2024/01/14 02:35:37;;;;;;;10.02;1.98;;;;;;;3.74;100.00;101164.50;7398055;19;19930;-77
2024/01/14 02:38:25;;;;;;;5.32;0.80;;;;;;;3.74;100.00;101154.72;7397024;19;19923;-78
2024/01/14 02:40:58;;;;;;;4.95;0.82;;;;;;;3.73;100.00;101149.50;7398160;19;19933;-77
2024/01/14 02:43:36;;;;;;;6.30;1.13;;;;;;;3.67;100.00;101150.03;7397955;19;20272;-79
2024/01/14 02:46:06;;;;;;;7.47;0.95;;;;;;;3.60;100.00;101139.84;7399201;19;19923;-78
2024/01/14 02:48:35;;;;;;;10.43;1.67;;;;;;;3.55;100.00;101133.19;7398820;19;20482;-77
2024/01/14 02:51:24;;;;;;;7.25;1.13;;;;;;;3.50;100.00;101133.56;7397362;19;19919;-77
2024/01/14 02:54:12;;;;;;;4.85;0.80;;;;;;;3.48;100.00;101127.53;7396506;19;19922;-78
2024/01/14 02:56:44;;;;;;;8.25;1.13;;;;;;;3.46;100.00;101134.81;7397061;19;20291;-78
2024/01/14 02:59:13;;;;;;;3.97;1.13;;;;;;;3.46;100.00;101136.63;7397743;19;19962;-77
2024/01/14 03:01:46;;;;;;;5.07;1.15;;;;;;;3.43;100.00;101132.41;7396976;19;19938;-77
2024/01/14 03:04:15;;;;;;;6.50;1.40;;;;;;;3.40;100.00;101137.97;7399095;19;20257;-77
2024/01/14 03:07:04;;;;;;;8.43;0.88;;;;;;;3.37;100.00;101132.03;7395803;19;20348;-77
2024/01/14 03:09:33;;;;;;;10.77;1.02;;;;;;;3.34;100.00;101126.97;7397013;19;19970;-77
2024/01/14 03:12:04;;;;;;;7.38;0.93;;;;;;;3.29;100.00;101135.31;7398542;19;19919;-77
2024/01/14 03:14:34;;;;;;;8.82;1.83;;;;;;;3.25;100.00;101136.53;7398834;19;19934;-77
2024/01/14 03:17:03;;;;;;;7.15;1.40;;;;;;;3.19;100.00;101139.72;7403265;19;19921;-77
2024/01/14 03:19:34;;;;;;;10.40;1.33;;;;;;;3.17;100.00;101131.84;7405476;19;19919;-76
2024/01/14 03:22:22;;;;;;;4.82;0.95;;;;;;;3.15;100.00;101146.22;7398083;19;20355;-77
2024/01/14 03:24:51;;;;;;;8.25;1.15;;;;;;;3.15;100.00;101139.09;7397576;19;19919;-77
2024/01/14 03:27:22;;;;;;;6.13;0.98;;;;;;;3.14;100.00;101144.56;7397577;19;19939;-76
2024/01/14 03:29:51;;;;;;;14.25;1.52;;;;;;;3.12;100.00;101133.16;7397054;19;19923;-77
2024/01/14 03:32:20;;;;;;;10.73;1.00;;;;;;;3.11;100.00;101137.63;7397353;19;19922;-76
2024/01/14 03:34:56;;;;;;;6.97;0.95;;;;;;;3.09;100.00;101136.09;7396176;19;19918;-77
2024/01/14 03:37:25;;;;;;;8.27;1.10;;;;;;;3.07;100.00;101136.19;7395846;19;19929;-77
2024/01/14 03:39:54;;;;;;;7.82;1.20;;;;;;;3.03;100.00;101142.72;7395571;19;19919;-77
2024/01/14 03:42:26;;;;;;;6.93;1.38;;;;;;;3.04;100.00;101143.59;7397029;19;20456;-77
2024/01/14 03:44:55;;;;;;;3.80;0.85;;;;;;;3.02;100.00;101137.56;7396169;19;21548;-77
2024/01/14 03:47:23;;;;;;;7.15;0.82;;;;;;;3.01;100.00;101136.72;7391062;19;19929;-77
2024/01/14 03:49:52;;;;;;;11.90;1.98;;;;;;;3.01;100.00;101130.53;7397432;19;20623;-77
2024/01/14 03:52:20;;;;;;;11.10;1.42;;;;;;;3.03;100.00;101132.09;7395016;19;19926;-77
2024/01/14 03:54:50;;;;;;;7.63;0.98;;;;;;;3.05;100.00;101126.66;7397762;19;20004;-77
2024/01/14 03:57:19;;;;;;;7.40;1.45;;;;;;;3.09;100.00;101133.44;7397787;19;19946;-77
2024/01/14 03:59:50;;;;;;;4.28;1.10;;;;;;;3.11;100.00;101119.00;7397044;19;19926;-77
2024/01/14 04:02:19;;;;;;;8.98;1.48;;;;;;;3.13;100.00;101116.25;7396412;19;20291;-77
2024/01/14 04:04:47;;;;;;;7.80;1.25;;;;;;;3.14;100.00;101116.13;7396776;19;19939;-77
2024/01/14 04:07:16;;;;;;;10.32;1.00;;;;;;;3.15;100.00;101116.94;7395664;19;19919;-77
2024/01/14 04:09:45;;;;;;;5.28;0.90;;;;;;;3.14;100.00;101115.28;7397243;19;20025;-77
2024/01/14 04:12:14;;;;;;;7.65;1.15;;;;;;;3.16;100.00;101108.00;7396402;19;20261;-77
2024/01/14 04:14:46;;;;;;;8.15;1.17;;;;;;;3.17;100.00;101115.03;7395846;19;20264;-77
2024/01/14 04:17:17;;;;;;;10.55;1.42;;;;;;;3.21;100.00;101108.47;7395341;19;19922;-77
2024/01/14 04:19:46;;;;;;;10.38;1.35;;;;;;;3.21;100.00;101097.81;7395314;19;20506;-77
2024/01/14 04:22:35;;;;;;;8.95;1.20;;;;;;;3.25;100.00;101099.28;7394513;19;19918;-77
2024/01/14 04:25:23;;;;;;;16.35;1.50;;;;;;;3.29;100.00;101099.84;7394301;19;19918;-76
2024/01/14 04:27:52;;;;;;;8.50;1.23;;;;;;;3.31;100.00;101096.13;7396711;19;19922;-77
2024/01/14 04:30:21;;;;;;;6.53;1.20;;;;;;;3.32;100.00;101100.47;7395343;19;19923;-77
2024/01/14 04:32:53;;;;;;;7.90;1.27;;;;;;;3.33;100.00;101096.81;7395830;19;19922;-77
2024/01/14 04:35:22;;;;;;;13.82;1.60;;;;;;;3.34;100.00;101090.53;7394354;19;20317;-77
2024/01/14 04:37:51;;;;;;;10.85;1.20;;;;;;;3.34;100.00;101082.53;7396278;19;20328;-77
2024/01/14 04:40:24;;;;;;;7.60;1.73;;;;;;;3.34;100.00;101087.88;7394257;19;19911;-77
2024/01/14 04:42:54;;;;;;;10.98;1.27;;;;;;;3.31;100.00;101085.47;7395363;19;19945;-77
2024/01/14 04:45:24;;;;;;;10.63;1.75;;;;;;;3.31;100.00;101088.13;7395741;19;19944;-77
2024/01/14 04:47:56;;;;;;;4.25;0.63;;;;;;;3.31;100.00;101084.63;7402108;19;19951;-77
2024/01/14 04:50:24;;;;;;;5.55;0.88;;;;;;;3.35;100.00;101083.41;7400848;19;20346;-76
2024/01/14 04:53:13;;;;;;;8.95;1.13;;;;;;;3.35;100.00;101076.25;7398266;19;19937;-77
2024/01/14 04:56:02;;;;;;;11.70;1.77;;;;;;;3.36;100.00;101074.44;7399346;19;20252;-77
2024/01/14 04:58:50;;;;;;;5.45;0.80;;;;;;;3.34;100.00;101077.22;7399082;19;19961;-77
2024/01/14 05:01:39;;;;;;;6.55;1.00;;;;;;;3.34;100.00;101073.72;7398318;19;20467;-77
2024/01/14 05:04:10;;;;;;;11.50;1.38;;;;;;;3.33;100.00;101062.22;7402807;19;19918;-78
2024/01/14 05:06:46;;;;;;;9.82;2.08;;;;;;;3.32;100.00;101068.53;7400784;19;19950;-77
2024/01/14 05:09:17;;;;;;;9.70;1.42;;;;;;;3.34;100.00;101057.72;7400299;19;19918;-77
2024/01/14 05:11:49;;;;;;;8.35;1.17;;;;;;;3.35;100.00;101064.75;7400677;19;19926;-77
2024/01/14 05:14:18;;;;;;;7.57;1.70;;;;;;;3.34;100.00;101063.06;7399433;19;19944;-77
2024/01/14 05:16:46;;;;;;;6.55;0.90;;;;;;;3.32;100.00;101057.03;7401795;19;20343;-77
2024/01/14 05:19:19;;;;;;;10.57;1.38;;;;;;;3.32;100.00;101065.88;7400818;19;19975;-77
2024/01/14 05:21:54;;;;;;;9.48;1.33;;;;;;;3.29;100.00;101060.78;7400863;19;19927;-77
2024/01/14 05:24:23;;;;;;;7.07;1.15;;;;;;;3.27;100.00;101060.06;7400778;19;19923;-77
2024/01/14 05:27:13;;;;;;;11.32;1.10;;;;;;;3.23;100.00;101058.63;7399589;19;19915;-77
2024/01/14 05:30:01;;;;;;;5.40;1.10;;;;;;;3.19;100.00;101059.84;7405005;19;20397;-77
2024/01/14 05:32:33;;;;;;;8.00;1.10;;;;;;;3.16;100.00;101049.44;7417491;19;19914;-77
2024/01/14 05:35:24;;;;;;;12.65;1.27;;;;;;;3.11;100.00;101041.81;7408254;19;19918;-77
2024/01/14 05:38:05;;;;;;;3.70;1.38;;;;;;;3.08;100.00;101039.41;7406353;19;19952;-77
2024/01/14 05:40:44;;;;;;;6.53;1.00;;;;;;;3.05;100.00;101031.69;7402865;19;19918;-77
2024/01/14 05:43:14;;;;;;;7.93;1.00;;;;;;;3.01;100.00;101032.91;7406342;19;19925;-77
2024/01/14 05:46:03;;;;;;;9.73;1.52;;;;;;;2.98;100.00;101026.97;7402756;19;19986;-77
2024/01/14 05:48:32;;;;;;;11.43;1.15;;;;;;;2.92;100.00;101030.16;7403973;19;19939;-77
2024/01/14 05:51:23;;;;;;;5.93;1.30;;;;;;;2.87;100.00;101027.84;7398807;19;19915;-77
2024/01/14 05:53:52;;;;;;;8.32;1.55;;;;;;;2.84;100.00;101024.59;7400423;19;19923;-77
2024/01/14 05:56:28;;;;;;;5.50;0.88;;;;;;;2.82;100.00;101031.84;7400263;19;19927;-77
2024/01/14 05:58:56;;;;;;;7.90;1.02;;;;;;;2.81;100.00;101025.69;7400904;19;19957;-77
2024/01/14 06:01:25;;;;;;;8.75;1.00;;;;;;;2.80;100.00;101026.69;7398478;19;20366;-76
2024/01/14 06:03:54;;;;;;;5.75;0.60;;;;;;;2.78;100.00;101027.75;7400793;19;20370;-77
2024/01/14 06:06:25;;;;;;;7.25;1.42;;;;;;;2.74;100.00;101019.16;7398862;19;19918;-77
2024/01/14 06:08:54;;;;;;;7.28;1.35;;;;;;;2.72;100.00;101018.44;7400210;19;19921;-77
2024/01/14 06:11:27;;;;;;;5.70;1.00;;;;;;;2.65;100.00;101017.25;7398670;19;20397;-77
2024/01/14 06:13:57;;;;;;;8.77;2.03;;;;;;;2.62;100.00;101018.34;7399674;19;19929;-77
2024/01/14 06:16:27;;;;;;;5.60;1.17;;;;;;;2.57;100.00;101022.34;7398869;19;20249;-77
2024/01/14 06:18:56;;;;;;;7.13;0.90;;;;;;;2.51;100.00;101007.72;7399298;19;19918;-77
2024/01/14 06:21:28;;;;;;;5.20;1.08;;;;;;;2.48;100.00;101013.28;7398899;19;19974;-77
2024/01/14 06:23:57;;;;;;;8.70;1.10;;;;;;;2.43;100.00;101015.44;7398542;19;19918;-77
2024/01/14 06:26:45;;;;;;;10.43;1.25;;;;;;;2.39;100.00;101006.03;7397485;19;20002;-77
2024/01/14 06:29:15;;;;;;;15.07;1.27;;;;;;;2.38;100.00;100996.34;7398413;19;20306;-77
2024/01/14 06:31:47;;;;;;;7.03;1.05;;;;;;;2.35;100.00;100993.94;7398399;19;19910;-77
2024/01/14 06:34:16;;;;;;;11.57;1.50;;;;;;;2.32;100.00;100996.84;7398825;19;19934;-77
2024/01/14 06:36:47;;;;;;;9.13;1.20;;;;;;;2.29;100.00;100995.28;7398439;19;19929;-78
2024/01/14 06:39:15;;;;;;;8.10;1.08;;;;;;;2.29;100.00;100991.75;7399104;19;19918;-78
2024/01/14 06:41:44;;;;;;;4.32;0.77;;;;;;;2.25;100.00;100987.66;7398794;19;19927;-77
2024/01/14 06:44:14;;;;;;;10.80;1.20;;;;;;;2.23;100.00;100986.94;7399387;19;20379;-77
2024/01/14 06:46:44;;;;;;;6.43;0.98;;;;;;;2.20;100.00;100979.22;7396927;19;19919;-77
2024/01/14 06:49:33;;;;;;;7.10;0.88;;;;;;;2.17;100.00;100990.91;7397248;19;20557;-78
2024/01/14 06:52:06;;;;;;;6.28;0.85;;;;;;;2.18;100.00;100978.47;7396058;19;19918;-77
2024/01/14 06:54:40;;;;;;;6.38;1.23;;;;;;;2.19;100.00;100990.81;7398439;19;20317;-77
2024/01/14 06:57:12;;;;;;;5.63;1.30;;;;;;;2.20;100.00;100995.16;7398261;19;19937;-77
2024/01/14 07:00:01;;;;;;;4.07;1.10;;;;;;;2.23;100.00;100989.59;7396048;19;19918;-78
2024/01/14 07:02:31;;;;;;;8.18;1.25;;;;;;;2.25;100.00;100980.53;7399522;19;19911;-78
2024/01/14 07:05:10;;;;;;;12.10;1.50;;;;;;;2.30;100.00;100988.13;7398697;19;19910;-78
2024/01/14 07:08:02;;;;;;;4.25;1.00;;;;;;;2.33;100.00;100979.09;7393772;19;19918;-78
2024/01/14 07:10:51;;;;;;;10.15;1.45;;;;;;;2.37;100.00;100972.56;7396869;19;19915;-78
2024/01/14 07:13:43;;;;;;;4.90;1.23;;;;;;;2.39;100.00;100971.47;7398432;19;20020;-78
2024/01/14 07:16:16;;;;;;;5.03;1.00;;;;;;;2.42;100.00;100965.03;7396756;19;19918;-78
2024/01/14 07:18:48;;;;;;;12.30;1.50;;;;;;;2.42;100.00;100960.56;7395439;19;19929;-78
2024/01/14 07:21:22;;;;;;;5.53;1.35;;;;;;;2.45;100.00;100952.38;7397008;19;20260;-77
2024/01/14 07:23:54;;;;;;;9.55;1.13;;;;;;;2.48;100.00;100961.91;7396638;19;20820;-77
2024/01/14 07:26:25;;;;;;;6.70;1.02;;;;;;;2.48;100.00;100960.09;7396470;19;19938;-77
2024/01/14 07:28:55;;;;;;;4.50;1.00;;;;;;;2.51;100.00;100959.84;7397337;19;19951;-77
2024/01/14 07:31:30;;;;;;;7.75;1.10;;;;;;;2.54;100.00;100964.09;7398255;19;19993;-77
2024/01/14 07:34:00;;;;;;;12.25;1.42;;;;;;;2.56;100.00;100962.13;7397570;19;19918;-77
2024/01/14 07:36:35;;;;;;;5.95;1.08;;;;;;;2.58;100.00;100968.19;7397519;19;19922;-77
2024/01/14 07:39:20;;;;;;;7.20;1.33;;;;;;;2.59;100.00;100969.88;7399039;19;20419;-78
2024/01/14 07:41:51;;;;;;;9.35;1.35;;;;;;;2.57;100.00;100967.34;7396984;19;19922;-77
2024/01/14 07:44:21;;;;;;;5.95;1.25;;;;;;;2.54;100.00;100964.09;7399108;19;20166;-77
2024/01/14 07:47:10;;;;;;;9.25;1.23;;;;;;;2.52;100.00;100966.00;7396301;19;20546;-77
2024/01/14 07:49:48;;;;;;;4.70;1.17;;;;;;;2.51;100.00;100973.13;7402423;19;19914;-77
2024/01/14 07:52:17;;;;;;;5.75;1.15;;;;;;;2.49;100.00;100964.47;7407456;19;19978;-78
2024/01/14 07:55:07;;;;;;;7.70;1.30;;;;;;;2.51;100.00;100974.94;7400497;19;19934;-77
2024/01/14 07:57:57;;;;;;;5.60;1.38;;;;;;;2.51;100.00;100975.78;7394157;19;19926;-78
2024/01/14 08:00:27;;;;;;;5.65;1.45;;;;;;;2.53;100.00;100981.00;7396309;19;20356;-77
2024/01/14 08:03:16;;;;;;;7.68;1.83;;;;;;;2.51;100.00;100981.13;7394106;19;19948;-78
2024/01/14 08:05:45;;;;;;;6.60;1.00;;;;;;;2.49;100.00;100975.09;7396591;19;19929;-77
2024/01/14 08:08:34;;;;;;;5.70;1.00;;;;;;;2.51;100.00;100973.13;7395677;19;19921;-78
2024/01/14 08:11:25;;;;;;;10.60;1.38;;;;;;;2.55;100.00;100968.41;7393951;19;19931;-78
2024/01/14 08:14:14;;;;;;;4.18;1.08;;;;;;;2.54;100.00;100964.94;7395124;19;20261;-78
2024/01/14 08:16:43;;;;;;;8.38;1.00;;;;;;;2.57;100.00;100958.50;7395803;19;19939;-77
2024/01/14 08:19:12;;;;;;;4.45;0.93;;;;;;;2.57;100.00;100959.38;7396584;19;19966;-77
2024/01/14 08:21:44;;;;;;;8.82;1.35;;;;;;;2.57;100.00;100959.38;7400640;19;19923;-77
2024/01/14 08:24:21;;;;;;;8.45;1.20;;;;;;;2.56;100.00;100955.00;7401539;19;20482;-77
2024/01/14 08:27:13;;;;;;;5.45;1.38;;;;;;;2.55;100.00;100955.97;7399510;19;19929;-77
2024/01/14 08:29:47;;;;;;;6.15;0.98;;;;;;;2.52;100.00;100958.88;7402714;19;19919;-78
2024/01/14 08:32:36;;;;;;;5.18;1.23;;;;;;;2.52;100.00;100964.19;7399915;19;19922;-77
2024/01/14 08:35:13;;;;;;;6.63;1.10;;;;;;;2.52;100.00;100953.56;7400547;19;20013;-77
2024/01/14 08:37:56;;;;;;;6.30;0.88;;;;;;;2.51;100.00;100951.03;7402024;19;19919;-77
2024/01/14 08:40:26;;;;;;;2.72;0.90;;;;;;;2.50;100.00;100944.03;7399271;19;19923;-78
2024/01/14 08:42:57;;;;;;;4.65;1.40;;;;;;;2.51;100.00;100943.88;7401981;19;20003;-78
2024/01/14 08:45:27;;;;;;;4.43;1.13;;;;;;;2.49;100.00;100943.19;7399408;19;19926;-77
2024/01/14 08:47:56;;;;;;;8.02;1.30;;;;;;;2.51;100.00;100940.38;7401855;19;19922;-77
2024/01/14 08:50:26;;;;;;;9.13;1.08;;;;;;;2.53;100.00;100949.94;7401079;19;20001;-77
2024/01/14 08:52:55;;;;;;;10.35;1.10;;;;;;;2.57;100.00;100943.41;7401323;19;20417;-77
2024/01/14 08:55:24;;;;;;;8.73;1.25;;;;;;;2.59;100.00;100944.13;7401212;19;19942;-77
2024/01/14 08:57:57;;;;;;;4.43;0.90;;;;;;;2.60;100.00;100932.50;7400182;19;19919;-77
2024/01/14 09:00:27;;;;;;;7.20;1.35;;;;;;;2.61;100.00;100934.22;7401531;19;19926;-77
2024/01/14 09:02:57;;;;;;;7.72;0.95;;;;;;;2.62;100.00;100927.94;7399956;19;19928;-77
2024/01/14 09:05:23;;;;;;;7.20;0.98;;;;;;;2.64;100.00;100925.97;7401355;19;20380;-77
2024/01/14 09:07:52;;;;;;;7.18;1.65;;;;;;;2.67;100.00;100928.41;7399815;19;20271;-77
2024/01/14 09:10:22;;;;;;;3.88;0.80;;;;;;;2.70;100.00;100927.28;7401821;19;20356;-78
2024/01/14 09:12:51;;;;;;;6.30;1.17;;;;;;;2.73;100.00;100927.03;7400675;19;19926;-77
2024/01/14 09:15:23;;;;;;;5.35;1.08;;;;;;;2.76;100.00;100923.31;7400937;19;19990;-78
2024/01/14 09:17:53;;;;;;;10.30;1.10;;;;;;;2.79;100.00;100920.38;7400491;19;19931;-77
2024/01/14 09:20:42;;;;;;;8.10;1.13;;;;;;;2.83;100.00;100919.16;7397171;19;19927;-77
2024/01/14 09:23:31;;;;;;;9.52;1.08;;;;;;;2.86;100.00;100921.56;7398701;19;20453;-77
2024/01/14 09:26:07;;;;;;;8.88;1.55;;;;;;;2.93;100.00;100925.41;7399994;19;19937;-77
2024/01/14 09:28:38;;;;;;;10.60;1.95;;;;;;;2.98;100.00;100923.19;7400863;19;19951;-78
2024/01/14 09:31:11;;;;;;;5.80;1.80;;;;;;;2.98;100.00;100915.22;7398653;19;19922;-78
2024/01/14 09:33:40;;;;;;;4.68;0.93;;;;;;;2.95;100.00;100915.47;7399844;19;19974;-77
2024/01/14 09:36:11;;;;;;;7.50;2.10;;;;;;;2.95;100.00;100912.81;7399742;19;20289;-78
2024/01/14 09:38:40;;;;;;;6.82;1.27;;;;;;;2.94;100.00;100903.13;7399478;19;20488;-78
2024/01/14 09:41:21;;;;;;;4.55;0.93;;;;;;;2.93;100.00;100906.78;7400010;19;19919;-77
2024/01/14 09:43:53;;;;;;;5.28;0.82;;;;;;;2.93;100.00;100899.66;7398143;19;19926;-78
2024/01/14 09:46:45;;;;;;;4.93;1.10;;;;;;;2.93;100.00;100897.00;7395976;19;19952;-78
2024/01/14 09:49:14;;;;;;;6.03;1.13;;;;;;;2.95;100.00;100904.84;7400028;19;20297;-77
2024/01/14 09:51:44;;;;;;;5.32;0.80;;;;;;;2.97;100.00;100906.41;7399122;19;19923;-78
2024/01/14 09:54:13;;;;;;;5.07;1.02;;;;;;;2.99;100.00;100901.78;7400177;19;19948;-78
2024/01/14 09:56:43;;;;;;;4.90;1.45;;;;;;;3.00;100.00;100903.50;7399941;19;20478;-77
2024/01/14 09:59:35;;;;;;;6.10;0.98;;;;;;;3.05;100.00;100903.94;7398300;19;20360;-78
2024/01/14 10:02:07;;;;;;;4.15;1.08;;;;;;;3.16;100.00;100900.38;7403119;19;19942;-77
2024/01/14 10:04:35;;;;;;;8.32;1.13;;;;;;;3.25;100.00;100894.28;7402481;19;20011;-78
2024/01/14 10:07:04;;;;;;;14.57;1.90;;;;;;;3.32;100.00;100886.63;7406011;19;19961;-77
2024/01/14 10:09:53;;;;;;;2.13;0.55;;;;;;;3.38;100.00;100886.94;7397644;19;20348;-77
2024/01/14 10:12:22;;;;;;;6.18;1.15;;;;;;;3.38;100.00;100889.59;7399808;19;19926;-77
2024/01/14 10:15:11;;;;;;;3.28;1.25;;;;;;;3.41;100.00;100896.50;7397519;19;19933;-77
2024/01/14 10:17:42;;;;;;;5.45;0.68;;;;;;;3.48;100.00;100895.00;7397987;19;19910;-77
2024/01/14 10:20:12;;;;;;;5.13;0.50;;;;;;;3.54;100.00;100884.66;7398463;19;19985;-78
2024/01/14 10:22:44;;;;;;;5.80;0.85;;;;;;;3.63;100.00;100873.22;7398871;19;20988;-78
2024/01/14 10:25:13;;;;;;;4.68;1.00;;;;;;;3.73;100.00;100872.41;7400498;19;19991;-78
2024/01/14 10:27:42;;;;;;;8.38;0.73;;;;;;;3.83;100.00;100862.66;7398918;19;19923;-78
2024/01/14 10:30:12;;;;;;;2.97;1.45;;;;;;;3.94;100.00;100866.06;7398938;19;20257;-77
2024/01/14 10:32:44;;;;;;;7.28;1.02;;;;;;;4.06;100.00;100859.63;7397842;19;19918;-77
2024/01/14 10:35:13;;;;;;;10.90;1.50;;;;;;;4.10;100.00;100853.06;7398404;19;19919;-78
2024/01/14 10:37:42;;;;;;;5.97;1.00;;;;;;;4.20;100.00;100846.91;7399316;19;19918;-78
2024/01/14 10:40:11;;;;;;;5.82;1.08;;;;;;;4.23;100.00;100847.47;7395999;19;19949;-78
2024/01/14 10:42:40;;;;;;;4.30;1.10;;;;;;;4.26;100.00;100839.22;7396656;19;19929;-77
2024/01/14 10:45:10;;;;;;;4.95;1.00;;;;;;;4.31;100.00;100842.31;7395706;19;21036;-78
2024/01/14 10:47:39;;;;;;;3.00;1.08;;;;;;;4.36;100.00;100837.41;7398521;19;19918;-77
2024/01/14 10:50:12;;;;;;;2.88;0.60;;;;;;;4.38;100.00;100838.13;7397241;19;20578;-77
2024/01/14 10:52:45;;;;;;;4.55;0.90;;;;;;;4.56;100.00;100824.94;7398876;19;20340;-77
2024/01/14 10:55:30;;;;;;;4.88;0.90;;;;;;;4.67;100.00;100830.13;7398303;19;19964;-77
2024/01/14 10:58:03;;;;;;;10.45;1.40;;;;;;;4.69;100.00;100825.50;7397662;19;19918;-77
2024/01/14 11:00:34;;;;;;;9.85;1.42;;;;;;;4.80;100.00;100813.84;7399005;19;19922;-77
2024/01/14 11:03:06;;;;;;;4.47;1.10;;;;;;;4.92;100.00;100810.03;7397154;19;19923;-78
2024/01/14 11:05:38;;;;;;;5.78;0.80;;;;;;;5.07;100.00;100800.59;7398387;19;19986;-78
2024/01/14 11:08:07;;;;;;;8.70;1.50;;;;;;;5.26;100.00;100807.75;7397240;19;20023;-77
2024/01/14 11:10:36;;;;;;;4.18;1.17;;;;;;;5.24;100.00;100799.88;7398220;19;19922;-78
2024/01/14 11:13:18;;;;;;;5.75;1.00;;;;;;;5.23;100.00;100798.16;7397555;19;19934;-77
2024/01/14 11:16:20;;;;;;;7.22;1.42;;;;;;;5.12;100.00;100790.34;7395951;19;19929;-78
2024/01/14 11:18:57;;;;;;;5.18;1.00;;;;;;;5.20;100.00;100784.28;7398721;19;20374;-78
2024/01/14 11:21:38;;;;;;;6.07;0.82;;;;;;;5.48;100.00;100776.16;7400148;19;19926;-78
2024/01/14 11:24:08;;;;;;;5.78;1.60;;;;;;;5.63;100.00;100765.00;7397289;19;21750;-78
2024/01/14 11:26:38;;;;;;;4.80;0.93;;;;;;;5.71;100.00;100760.59;7399394;19;20353;-78
2024/01/14 11:29:06;;;;;;;7.15;1.17;;;;;;;5.78;98.98;100759.00;7398826;19;19930;-77
2024/01/14 11:32:05;;;;;;;8.82;1.60;;;;;;;5.93;98.38;100757.56;7399624;19;19923;-77
2024/01/14 11:34:55;;;;;;;8.30;1.38;;;;;;;6.03;98.06;100752.16;7402585;19;19926;-77
2024/01/14 11:37:41;;;;;;;4.07;1.05;;;;;;;6.07;96.70;100755.34;7398562;19;20310;-77
2024/01/14 11:40:18;;;;;;;4.38;0.95;;;;;;;6.07;96.31;100745.50;7397222;19;19919;-77
2024/01/14 11:42:51;;;;;;;7.95;1.13;;;;;;;6.11;96.94;100738.00;7396491;19;19938;-77
2024/01/14 11:45:37;;;;;;;4.25;0.90;;;;;;;5.75;96.99;100734.41;7395888;19;19914;-77
2024/01/14 11:48:08;;;;;;;7.03;0.70;;;;;;;5.55;98.50;100739.03;7397343;19;19943;-77
2024/01/14 11:50:39;;;;;;;5.82;0.80;;;;;;;5.34;99.74;100735.75;7396416;19;19922;-77
2024/01/14 11:53:11;;;;;;;5.15;1.00;;;;;;;5.26;100.00;100723.13;7397101;19;19922;-77
2024/01/14 11:55:40;;;;;;;7.07;1.27;;;;;;;5.23;100.00;100718.06;7396510;19;19914;-77